createdAt,value
2023-04-18T00:01:24.851Z,99.99
2023-04-18T00:16:24.679Z,99.99
2023-04-18T00:31:24.582Z,99.99
2023-04-18T00:46:24.415Z,99.99
2023-04-18T01:01:24.220Z,99.99
2023-04-18T01:16:24.135Z,99.99
2023-04-18T01:31:23.949Z,99.99
2023-04-18T01:46:23.848Z,99.99
2023-04-18T02:01:23.587Z,99.99
2023-04-18T02:16:23.499Z,99.99
2023-04-18T02:31:23.295Z,99.99
2023-04-18T02:46:23.248Z,99.99
2023-04-18T03:01:22.996Z,99.99
2023-04-18T03:16:26.036Z,99.99
2023-04-18T03:31:22.740Z,99.17
2023-04-18T03:46:22.541Z,98.86
2023-04-18T04:01:22.355Z,99.07
2023-04-18T04:16:22.245Z,99.01
2023-04-18T04:31:22.208Z,99.99
2023-04-18T04:46:21.906Z,99.99
2023-04-18T05:01:21.775Z,99.99
2023-04-18T05:16:21.616Z,99.99
2023-04-18T05:31:21.439Z,99.17
2023-04-18T05:46:21.372Z,98.92
2023-04-18T06:01:21.098Z,98.21
2023-04-18T06:16:21.059Z,96.61
2023-04-18T06:31:20.812Z,96.05
2023-04-18T06:46:20.746Z,95.18
2023-04-18T07:01:20.490Z,91.64
2023-04-18T07:16:20.357Z,86.21
2023-04-18T07:31:20.223Z,86.05
2023-04-18T07:46:20.035Z,88.04
2023-04-18T08:01:19.875Z,89.52
2023-04-18T08:16:19.711Z,88.70
2023-04-18T08:31:19.552Z,89.28
2023-04-18T08:46:19.534Z,87.90
2023-04-18T09:01:19.280Z,87.30
2023-04-18T09:16:19.097Z,83.27
2023-04-18T09:31:18.997Z,83.27
2023-04-18T09:46:18.896Z,81.76
2023-04-18T10:01:18.613Z,81.56
2023-04-18T10:16:20.016Z,80.73
2023-04-18T10:31:18.382Z,78.75
2023-04-18T10:46:31.088Z,81.20
2023-04-18T11:01:18.011Z,78.47
2023-04-18T11:16:17.834Z,78.64
2023-04-18T11:31:17.700Z,77.96
2023-04-18T11:46:17.593Z,78.39
2023-04-18T12:01:17.427Z,79.79
2023-04-18T12:16:17.279Z,77.81
2023-04-18T12:31:17.099Z,76.86
2023-04-18T12:46:16.963Z,77.30
2023-04-18T13:01:16.753Z,78.93
2023-04-18T13:16:16.607Z,77.74
2023-04-18T13:31:17.246Z,74.99
2023-04-18T13:46:16.334Z,74.85
2023-04-18T14:01:16.301Z,74.96
2023-04-18T14:16:15.978Z,72.01
2023-04-18T14:31:15.765Z,73.77
2023-04-18T14:46:15.829Z,74.21
2023-04-18T15:01:15.476Z,77.78
2023-04-18T15:16:15.323Z,73.97
2023-04-18T15:31:15.201Z,73.60
2023-04-18T15:46:15.051Z,72.28
2023-04-18T16:01:14.854Z,72.17
2023-04-18T16:16:14.700Z,70.65
2023-04-18T16:31:14.572Z,68.85
2023-04-18T16:46:14.403Z,68.88
2023-04-18T17:01:14.155Z,69.93
2023-04-18T17:16:14.006Z,71.91
2023-04-18T17:31:14.255Z,73.50
2023-04-18T17:46:13.843Z,74.05
2023-04-18T18:01:13.542Z,74.52
2023-04-18T18:16:13.353Z,74.46
2023-04-18T18:31:13.226Z,76.64
2023-04-18T18:46:13.175Z,76.20
2023-04-18T19:01:12.988Z,75.73
2023-04-18T19:16:12.864Z,74.36
2023-04-18T19:31:12.664Z,74.12
2023-04-18T19:46:12.423Z,75.42
2023-04-18T20:01:12.702Z,75.97
2023-04-18T20:16:12.237Z,77.75
2023-04-18T20:31:12.004Z,79.54
2023-04-18T20:46:11.846Z,81.71
2023-04-18T21:01:11.643Z,82.74
2023-04-18T21:16:11.538Z,84.01
2023-04-18T21:31:11.344Z,85.91
2023-04-18T21:46:11.174Z,87.65
2023-04-18T22:01:11.189Z,87.85
2023-04-18T22:16:10.860Z,86.03
2023-04-18T22:31:10.749Z,86.52
2023-04-18T22:46:10.548Z,84.66
2023-04-18T23:01:10.364Z,82.22
2023-04-18T23:16:10.226Z,80.36
2023-04-18T23:31:10.103Z,79.19
2023-04-18T23:46:09.934Z,78.88
